Time;durP1;ratioP1;P1;durP2;ratioP2;P2;SDS_P1;SDS_P2;PMS_P1;PMS_P2;Temp;Humidity;BMP_temperature;BMP_pressure;BME280_temperature;BME280_humidity;BME280_pressure;Samples;Min_cycle;Max_cycle;Signal;HPM_P1;HPM_P2
2023/12/14 00:00:27;;;;;;;72.23;22.30;;;;;;;3.08;100.00;100464.88;7388751;19;20416;-44
2023/12/14 00:02:56;;;;;;;11.70;4.77;;;;;;;3.12;100.00;100473.63;7367751;19;20424;-42
2023/12/14 00:05:28;;;;;;;9.07;3.77;;;;;;;3.09;100.00;100477.72;7392508;19;20435;-46
2023/12/14 00:07:58;;;;;;;10.53;3.53;;;;;;;3.13;100.00;100477.94;7372223;19;20422;-43
2023/12/14 00:10:27;;;;;;;10.60;4.43;;;;;;;3.07;100.00;100492.03;7395793;19;20419;-44
2023/12/14 00:12:57;;;;;;;12.00;5.67;;;;;;;3.10;100.00;100492.25;7373879;19;20439;-43
2023/12/14 00:15:27;;;;;;;55.77;18.83;;;;;;;3.11;100.00;100498.22;7396525;19;20438;-46
2023/12/14 00:17:56;;;;;;;13.73;4.93;;;;;;;3.16;100.00;100495.97;7373602;19;20847;-44
2023/12/14 00:20:28;;;;;;;13.57;5.33;;;;;;;3.19;100.00;100496.19;7396122;19;20435;-43
2023/12/14 00:22:58;;;;;;;22.43;7.77;;;;;;;3.22;100.00;100499.84;7372066;19;20954;-42
2023/12/14 00:25:28;;;;;;;8.57;3.20;;;;;;;3.25;100.00;100499.16;7396167;19;20451;-42
2023/12/14 00:27:57;;;;;;;36.80;13.53;;;;;;;3.30;100.00;100497.81;7372320;19;20510;-43
2023/12/14 00:30:27;;;;;;;9.13;3.60;;;;;;;3.19;100.00;100502.16;7395746;19;20404;-43
2023/12/14 00:32:57;;;;;;;15.30;5.90;;;;;;;3.16;100.00;100513.81;7371856;19;20423;-44
2023/12/14 00:35:29;;;;;;;7.83;2.60;;;;;;;3.13;100.00;100519.59;7395580;19;20439;-43
2023/12/14 00:37:59;;;;;;;12.63;3.47;;;;;;;3.13;100.00;100528.91;7372465;19;20415;-43
2023/12/14 00:40:28;;;;;;;14.53;4.97;;;;;;;3.07;100.00;100532.81;7395148;19;20759;-41
2023/12/14 00:42:58;;;;;;;11.20;3.87;;;;;;;3.24;100.00;100540.75;7369581;19;20457;-42
2023/12/14 00:45:27;;;;;;;5.63;2.23;;;;;;;3.21;100.00;100537.97;7394981;19;21001;-43
2023/12/14 00:47:57;;;;;;;5.00;2.17;;;;;;;3.18;100.00;100543.75;7371840;19;20873;-43
2023/12/14 00:50:29;;;;;;;14.57;5.60;;;;;;;3.20;100.00;100541.31;7397311;19;20408;-43
2023/12/14 00:52:59;;;;;;;10.47;3.07;;;;;;;3.14;100.00;100546.88;7372410;19;20526;-42
2023/12/14 00:55:28;;;;;;;12.77;4.83;;;;;;;3.18;100.00;100547.97;7395698;19;20451;-42
2023/12/14 00:57:58;;;;;;;4.73;2.70;;;;;;;3.14;100.00;100548.53;7370859;19;20972;-42
2023/12/14 01:00:28;;;;;;;6.20;2.73;;;;;;;3.20;100.00;100554.06;7394989;19;20412;-44
2023/12/14 01:02:58;;;;;;;4.57;2.20;;;;;;;3.14;100.00;100558.72;7370893;19;20944;-43
2023/12/14 01:05:30;;;;;;;39.07;13.23;;;;;;;3.21;100.00;100563.47;7394968;19;20439;-43
2023/12/14 01:08:00;;;;;;;7.47;2.63;;;;;;;3.19;100.00;100567.59;7370635;19;20423;-43
2023/12/14 01:10:30;;;;;;;4.87;2.20;;;;;;;3.18;100.00;100569.25;7396926;19;20427;-42
2023/12/14 01:12:59;;;;;;;15.83;5.17;;;;;;;3.19;100.00;100575.25;7371374;19;20426;-44
2023/12/14 01:15:29;;;;;;;20.73;6.40;;;;;;;3.22;100.00;100577.97;7394676;19;21007;-44
2023/12/14 01:17:58;;;;;;;54.67;19.67;;;;;;;3.35;100.00;100587.38;7371551;19;20423;-43
2023/12/14 01:20:31;;;;;;;9.40;3.33;;;;;;;3.23;100.00;100589.97;7394660;19;20404;-43
2023/12/14 01:23:00;;;;;;;10.10;2.17;;;;;;;3.13;100.00;100587.56;7370355;19;20423;-43
2023/12/14 01:25:30;;;;;;;9.07;3.20;;;;;;;3.15;100.00;100581.78;7394941;19;20806;-44
2023/12/14 01:28:00;;;;;;;14.83;4.90;;;;;;;3.18;100.00;100576.88;7370788;19;20451;-43
2023/12/14 01:30:29;;;;;;;10.90;3.60;;;;;;;3.28;100.00;100592.84;7395241;19;20426;-43
2023/12/14 01:32:59;;;;;;;40.17;14.87;;;;;;;3.29;100.00;100589.50;7369333;19;20520;-45
2023/12/14 01:35:31;;;;;;;8.93;2.87;;;;;;;3.23;100.00;100595.06;7394304;19;20444;-41
2023/12/14 01:38:01;;;;;;;4.30;1.80;;;;;;;3.20;100.00;100597.41;7370288;19;20456;-43
2023/12/14 01:40:30;;;;;;;14.50;3.63;;;;;;;3.19;100.00;100599.06;7393377;19;20403;-43
2023/12/14 01:43:10;;;;;;;76.93;26.93;;;;;;;3.21;100.00;100606.81;7367072;19;20430;-44
2023/12/14 01:45:40;;;;;;;15.60;5.50;;;;;;;3.23;100.00;100613.78;7394809;19;20461;-43
2023/12/14 01:48:10;;;;;;;35.87;10.27;;;;;;;3.24;100.00;100617.25;7370878;19;20780;-44
2023/12/14 01:50:42;;;;;;;12.40;4.40;;;;;;;3.19;100.00;100613.50;7393898;19;20520;-44
2023/12/14 01:53:11;;;;;;;17.17;4.70;;;;;;;3.16;100.00;100615.81;7369282;19;20422;-43
2023/12/14 01:55:41;;;;;;;6.97;2.47;;;;;;;3.15;100.00;100611.50;7394742;19;20439;-42
2023/12/14 01:58:11;;;;;;;49.90;15.77;;;;;;;3.19;100.00;100616.03;7369874;19;20415;-42
2023/12/14 02:00:45;;;;;;;7.70;3.40;;;;;;;3.20;100.00;100608.50;7393701;19;20416;-45
2023/12/14 02:03:14;;;;;;;6.57;2.40;;;;;;;3.27;100.00;100614.88;7367368;19;20462;-43
2023/12/14 02:05:47;;;;;;;4.77;2.47;;;;;;;3.24;100.00;100614.69;7392618;19;20435;-42
2023/12/14 02:08:16;;;;;;;7.90;1.90;;;;;;;3.28;100.00;100616.66;7370222;19;20402;-42
2023/12/14 02:10:46;;;;;;;27.87;10.83;;;;;;;3.33;100.00;100622.97;7393448;19;20487;-42
2023/12/14 02:13:15;;;;;;;13.73;2.97;;;;;;;3.24;100.00;100623.22;7369921;19;20427;-41
2023/12/14 02:15:45;;;;;;;12.10;5.27;;;;;;;3.24;100.00;100628.31;7394161;19;20443;-42
2023/12/14 02:18:15;;;;;;;4.53;2.50;;;;;;;3.27;100.00;100636.97;7369278;19;20649;-45
2023/12/14 02:20:47;;;;;;;16.13;5.80;;;;;;;3.22;100.00;100634.09;7393681;19;20431;-42
2023/12/14 02:23:19;;;;;;;13.50;3.00;;;;;;;3.23;100.00;100631.66;7368667;19;20908;-42
2023/12/14 02:25:49;;;;;;;11.00;4.43;;;;;;;3.23;100.00;100630.78;7394160;19;20443;-41
2023/12/14 02:28:19;;;;;;;24.40;8.50;;;;;;;3.13;100.00;100630.91;7367768;19;20419;-42
2023/12/14 02:30:48;;;;;;;47.87;16.97;;;;;;;3.15;100.00;100632.78;7392896;19;20483;-43
2023/12/14 02:33:18;;;;;;;37.93;12.83;;;;;;;3.12;100.00;100636.78;7368940;19;20876;-44
2023/12/14 02:35:48;;;;;;;16.33;5.67;;;;;;;3.24;100.00;100640.19;7393299;19;20459;-43
2023/12/14 02:38:20;;;;;;;16.43;6.50;;;;;;;3.19;100.00;100639.84;7368824;19;20495;-42
2023/12/14 02:40:50;;;;;;;12.30;4.77;;;;;;;3.19;100.00;100644.09;7393437;19;20419;-42
2023/12/14 02:43:19;;;;;;;7.13;3.07;;;;;;;3.20;100.00;100645.84;7366382;19;20430;-42
2023/12/14 02:45:49;;;;;;;13.80;5.50;;;;;;;3.19;100.00;100649.19;7387440;19;21030;-42
2023/12/14 02:48:19;;;;;;;10.20;3.80;;;;;;;3.18;100.00;100648.28;7369059;19;20502;-43
2023/12/14 02:50:48;;;;;;;33.33;11.63;;;;;;;3.19;100.00;100646.63;7386234;19;20415;-42
2023/12/14 02:53:20;;;;;;;28.63;10.37;;;;;;;3.21;100.00;100655.25;7368090;19;20433;-45
2023/12/14 02:55:50;;;;;;;5.33;2.40;;;;;;;3.17;100.00;100663.50;7393675;19;20522;-43
2023/12/14 02:58:21;;;;;;;4.73;2.60;;;;;;;3.13;100.00;100666.59;7368624;19;20439;-42
2023/12/14 03:00:51;;;;;;;6.10;2.93;;;;;;;3.16;100.00;100669.34;7392443;19;20491;-43
2023/12/14 03:03:20;;;;;;;6.50;2.67;;;;;;;3.12;100.00;100677.59;7367884;19;20451;-42
2023/12/14 03:05:50;;;;;;;9.87;2.80;;;;;;;3.10;100.00;100680.91;7391699;19;20443;-41
2023/12/14 03:08:22;;;;;;;13.60;5.30;;;;;;;3.16;100.00;100684.66;7369370;19;20423;-43
2023/12/14 03:10:51;;;;;;;38.37;12.17;;;;;;;3.19;100.00;100690.84;7392120;19;20482;-43
2023/12/14 03:13:21;;;;;;;90.50;30.00;;;;;;;3.30;100.00;100694.19;7367614;19;20982;-43
2023/12/14 03:15:51;;;;;;;54.03;20.27;;;;;;;3.19;100.00;100695.09;7390233;19;20453;-42
2023/12/14 03:18:21;;;;;;;8.20;3.40;;;;;;;3.15;100.00;100699.09;7367788;19;20431;-43
2023/12/14 03:20:50;;;;;;;52.30;16.47;;;;;;;3.19;100.00;100701.06;7391783;19;20408;-43
2023/12/14 03:23:23;;;;;;;11.93;4.27;;;;;;;3.20;100.00;100707.06;7368244;19;21085;-43
2023/12/14 03:25:52;;;;;;;10.80;4.00;;;;;;;3.20;100.00;100707.06;7392837;19;20507;-45
2023/12/14 03:28:22;;;;;;;14.33;3.70;;;;;;;3.13;100.00;100699.75;7367955;19;20459;-42
2023/12/14 03:30:51;;;;;;;31.73;11.30;;;;;;;3.28;100.00;100705.91;7392836;19;20406;-45
2023/12/14 03:33:22;;;;;;;14.13;3.97;;;;;;;3.22;100.00;100710.59;7367235;19;20422;-43
2023/12/14 03:35:51;;;;;;;16.80;6.40;;;;;;;3.27;100.00;100716.91;7391651;19;20450;-44
2023/12/14 03:38:24;;;;;;;7.10;3.83;;;;;;;3.21;100.00;100716.47;7367380;19;20444;-42
2023/12/14 03:40:53;;;;;;;5.40;2.33;;;;;;;3.24;100.00;100715.03;7395761;19;20414;-41
2023/12/14 03:43:23;;;;;;;6.50;2.53;;;;;;;3.18;100.00;100717.13;7372191;19;20435;-44
2023/12/14 03:45:52;;;;;;;32.93;10.93;;;;;;;3.19;100.00;100725.69;7398525;19;20518;-43
2023/12/14 03:48:22;;;;;;;19.03;6.80;;;;;;;3.21;100.00;100726.66;7375729;19;20502;-44
2023/12/14 03:50:52;;;;;;;13.87;6.00;;;;;;;3.23;100.00;100722.59;7397963;19;20407;-43
2023/12/14 03:53:24;;;;;;;53.63;19.13;;;;;;;3.27;100.00;100729.66;7373880;19;20523;-43
2023/12/14 03:55:53;;;;;;;13.93;5.90;;;;;;;3.22;100.00;100731.00;7398653;19;20447;-43
2023/12/14 03:58:23;;;;;;;7.13;3.10;;;;;;;3.17;100.00;100742.56;7374405;19;20494;-42
2023/12/14 04:00:52;;;;;;;9.77;4.73;;;;;;;3.10;100.00;100737.00;7400638;19;20580;-43
2023/12/14 04:03:22;;;;;;;61.00;21.23;;;;;;;3.18;100.00;100732.44;7373617;19;20415;-42
2023/12/14 04:05:52;;;;;;;17.53;7.63;;;;;;;3.13;100.00;100743.09;7397896;19;21057;-42
2023/12/14 04:08:25;;;;;;;31.17;9.67;;;;;;;3.14;100.00;100747.41;7373635;19;20433;-45
2023/12/14 04:10:54;;;;;;;9.80;2.93;;;;;;;3.10;100.00;100751.41;7397775;19;20424;-42
2023/12/14 04:13:24;;;;;;;11.10;4.03;;;;;;;3.13;100.00;100748.19;7373615;19;20423;-42
2023/12/14 04:15:53;;;;;;;29.83;10.67;;;;;;;3.14;100.00;100760.16;7397991;19;20515;-42
2023/12/14 04:18:23;;;;;;;21.27;8.03;;;;;;;3.06;100.00;100760.50;7373537;19;20431;-42
2023/12/14 04:20:53;;;;;;;9.03;3.93;;;;;;;3.12;100.00;100760.03;7397217;19;20418;-44
2023/12/14 04:23:26;;;;;;;11.23;4.27;;;;;;;3.07;100.00;100762.25;7373248;19;20419;-42
2023/12/14 04:25:56;;;;;;;10.50;4.20;;;;;;;3.22;100.00;100751.38;7397429;19;20991;-42
2023/12/14 04:28:25;;;;;;;7.93;3.07;;;;;;;3.18;100.00;100763.03;7373198;19;20431;-42
2023/12/14 04:30:55;;;;;;;7.53;3.13;;;;;;;3.17;100.00;100768.03;7399792;19;20419;-43
2023/12/14 04:33:25;;;;;;;37.13;13.87;;;;;;;3.26;100.00;100767.78;7372805;19;20423;-44
2023/12/14 04:35:54;;;;;;;14.00;4.73;;;;;;;3.17;100.00;100768.03;7397443;19;20443;-43
2023/12/14 04:38:26;;;;;;;28.67;9.97;;;;;;;3.09;100.00;100770.03;7373246;19;20946;-43
2023/12/14 04:40:56;;;;;;;99.10;33.93;;;;;;;3.10;100.00;100767.59;7396966;19;20425;-42
2023/12/14 04:43:29;;;;;;;7.90;3.83;;;;;;;3.02;100.00;100773.78;7370468;19;20423;-43
2023/12/14 04:45:59;;;;;;;17.50;6.60;;;;;;;2.97;100.00;100782.75;7395406;19;20518;-42
2023/12/14 04:48:28;;;;;;;7.37;3.10;;;;;;;2.84;100.00;100783.53;7372674;19;20427;-42
2023/12/14 04:50:58;;;;;;;7.97;3.33;;;;;;;2.87;100.00;100783.75;7394424;19;20431;-42
2023/12/14 04:53:30;;;;;;;12.27;4.33;;;;;;;2.88;100.00;100779.56;7372466;19;20659;-43
2023/12/14 04:56:00;;;;;;;11.10;4.60;;;;;;;2.89;100.00;100782.22;7395136;19;20994;-41
2023/12/14 04:58:29;;;;;;;8.63;3.30;;;;;;;2.90;100.00;100783.09;7372696;19;20423;-43
2023/12/14 05:00:59;;;;;;;18.30;5.03;;;;;;;2.87;100.00;100783.75;7394676;19;20410;-44
2023/12/14 05:03:28;;;;;;;52.83;18.43;;;;;;;2.90;100.00;100784.00;7371999;19;20446;-44
2023/12/14 05:05:58;;;;;;;8.43;4.03;;;;;;;2.87;100.00;100790.53;7394168;19;20438;-44
2023/12/14 05:08:30;;;;;;;10.57;4.50;;;;;;;2.87;100.00;100793.94;7372012;19;20427;-45
2023/12/14 05:11:00;;;;;;;14.20;5.93;;;;;;;2.80;100.00;100792.63;7394351;19;20408;-42
2023/12/14 05:13:29;;;;;;;11.73;4.50;;;;;;;2.70;100.00;100790.16;7371980;19;20419;-43
2023/12/14 05:16:00;;;;;;;21.23;7.37;;;;;;;2.72;100.00;100790.28;7395257;19;20917;-43
2023/12/14 05:18:27;;;;;;;26.10;9.30;;;;;;;2.62;100.00;100792.13;7371608;19;20436;-42
2023/12/14 05:20:58;;;;;;;11.90;4.83;;;;;;;2.54;100.00;100796.69;7395888;19;20439;-45
2023/12/14 05:23:27;;;;;;;9.50;4.20;;;;;;;2.54;100.00;100798.31;7372112;19;20429;-42
2023/12/14 05:25:59;;;;;;;41.73;15.73;;;;;;;2.50;100.00;100802.31;7396145;19;20443;-42
2023/12/14 05:28:29;;;;;;;11.83;4.77;;;;;;;2.53;100.00;100802.56;7371462;19;20453;-42
2023/12/14 05:30:58;;;;;;;13.63;5.00;;;;;;;2.53;100.00;100802.56;7395645;19;20407;-43
2023/12/14 05:33:28;;;;;;;11.87;5.00;;;;;;;2.49;100.00;100800.53;7371093;19;20515;-42
2023/12/14 05:35:58;;;;;;;12.73;4.97;;;;;;;2.49;100.00;100797.09;7390049;19;20526;-43
2023/12/14 05:38:27;;;;;;;14.47;6.60;;;;;;;2.56;100.00;100795.13;7371057;19;20423;-42
2023/12/14 05:40:59;;;;;;;12.27;5.00;;;;;;;2.51;100.00;100803.22;7397337;19;20411;-41
2023/12/14 05:43:29;;;;;;;12.60;4.50;;;;;;;2.50;100.00;100802.31;7369374;19;20427;-42
2023/12/14 05:45:59;;;;;;;13.27;5.63;;;;;;;2.52;100.00;100810.94;7393711;19;20439;-43
2023/12/14 05:48:29;;;;;;;9.67;4.53;;;;;;;2.50;100.00;100816.69;7371418;19;20453;-41
2023/12/14 05:50:59;;;;;;;17.63;7.27;;;;;;;2.52;100.00;100813.50;7394555;19;20498;-42
2023/12/14 05:53:29;;;;;;;14.60;6.07;;;;;;;2.48;100.00;100808.97;7370796;19;20422;-42
2023/12/14 05:56:01;;;;;;;10.57;4.87;;;;;;;2.49;100.00;100820.00;7393684;19;20457;-44
2023/12/14 05:58:31;;;;;;;11.87;4.40;;;;;;;2.58;100.00;100822.38;7370685;19;20439;-42
2023/12/14 06:01:00;;;;;;;11.90;6.00;;;;;;;2.61;100.00;100825.16;7393138;19;20415;-42
2023/12/14 06:03:31;;;;;;;21.63;8.47;;;;;;;2.50;100.00;100827.78;7368278;19;20451;-42
2023/12/14 06:06:01;;;;;;;11.73;5.37;;;;;;;2.51;100.00;100826.13;7393348;19;20439;-43
2023/12/14 06:08:30;;;;;;;10.90;4.90;;;;;;;2.57;100.00;100834.25;7369757;19;20422;-43
2023/12/14 06:11:03;;;;;;;34.27;13.33;;;;;;;2.56;100.00;100833.34;7392963;19;20415;-42
2023/12/14 06:13:32;;;;;;;9.90;4.60;;;;;;;2.59;100.00;100827.59;7370188;19;20502;-42
2023/12/14 06:16:02;;;;;;;28.83;9.90;;;;;;;2.53;100.00;100828.03;7393333;19;20443;-43
2023/12/14 06:18:33;;;;;;;14.33;4.87;;;;;;;2.50;100.00;100831.97;7369806;19;20427;-43
2023/12/14 06:21:02;;;;;;;10.10;4.80;;;;;;;2.49;100.00;100836.19;7392402;19;20413;-44
2023/12/14 06:23:32;;;;;;;9.40;4.70;;;;;;;2.49;100.00;100832.75;7369759;19;20423;-42
2023/12/14 06:26:05;;;;;;;9.90;4.63;;;;;;;2.53;100.00;100838.22;7392823;19;20443;-43
2023/12/14 06:28:34;;;;;;;13.43;4.80;;;;;;;2.51;100.00;100843.97;7369497;19;20448;-42
2023/12/14 06:31:04;;;;;;;12.50;5.50;;;;;;;2.52;100.00;100846.59;7392451;19;20423;-41
2023/12/14 06:33:33;;;;;;;12.83;5.77;;;;;;;2.48;100.00;100859.91;7369701;19;20502;-44
2023/12/14 06:36:06;;;;;;;10.70;4.60;;;;;;;2.54;100.00;100865.47;7392452;19;20426;-43
2023/12/14 06:38:36;;;;;;;18.17;7.97;;;;;;;2.50;100.00;100873.63;7369521;19;20435;-45
2023/12/14 06:41:08;;;;;;;9.83;4.87;;;;;;;2.42;100.00;100870.50;7392220;19;20407;-42
2023/12/14 06:43:40;;;;;;;47.67;17.20;;;;;;;2.34;100.00;100876.66;7368212;19;20431;-42
2023/12/14 06:46:10;;;;;;;11.53;5.40;;;;;;;2.47;100.00;100873.41;7392035;19;20471;-43
2023/12/14 06:48:40;;;;;;;11.33;5.40;;;;;;;2.49;100.00;100881.16;7369332;19;20423;-41
2023/12/14 06:51:09;;;;;;;15.90;5.90;;;;;;;2.47;100.00;100883.59;7392120;19;20407;-42
2023/12/14 06:53:42;;;;;;;12.33;5.60;;;;;;;2.54;100.00;100880.75;7369345;19;20823;-42
2023/12/14 06:56:15;;;;;;;18.17;6.73;;;;;;;2.55;100.00;100887.59;7391836;19;20439;-49
2023/12/14 06:58:49;;;;;;;16.43;5.67;;;;;;;2.59;100.00;100882.72;7369364;19;21006;-41
2023/12/14 07:01:19;;;;;;;13.40;5.93;;;;;;;2.58;100.00;100891.16;7391918;19;20422;-42
2023/12/14 07:03:49;;;;;;;12.67;5.63;;;;;;;2.70;100.00;100884.44;7368523;19;20466;-42
2023/12/14 07:06:20;;;;;;;16.43;6.10;;;;;;;2.62;100.00;100888.06;7392314;19;20408;-42
2023/12/14 07:08:50;;;;;;;12.63;6.27;;;;;;;2.56;100.00;100889.38;7369491;19;20423;-44
2023/12/14 07:11:22;;;;;;;13.50;5.10;;;;;;;2.54;100.00;100890.03;7391227;19;20487;-42
2023/12/14 07:13:52;;;;;;;12.33;5.60;;;;;;;2.47;100.00;100909.06;7370350;19;20426;-50
2023/12/14 07:16:22;;;;;;;13.10;5.30;;;;;;;2.49;100.00;100912.63;7395310;19;20403;-44
2023/12/14 07:18:51;;;;;;;10.60;5.10;;;;;;;2.48;100.00;100926.13;7374325;19;20422;-43
2023/12/14 07:21:22;;;;;;;11.50;5.27;;;;;;;2.52;100.00;100927.25;7397586;19;20830;-43
2023/12/14 07:23:51;;;;;;;13.57;5.30;;;;;;;2.54;100.00;100935.88;7376023;19;20430;-46
2023/12/14 07:26:23;;;;;;;9.73;4.90;;;;;;;2.42;100.00;100938.38;7397282;19;20415;-41
2023/12/14 07:28:55;;;;;;;10.90;4.83;;;;;;;2.36;100.00;100950.66;7374980;19;20997;-42
2023/12/14 07:31:25;;;;;;;11.63;5.37;;;;;;;2.38;100.00;100954.19;7397694;19;20427;-41
2023/12/14 07:33:54;;;;;;;19.37;9.23;;;;;;;2.35;100.00;100956.50;7375461;19;20419;-42
2023/12/14 07:36:25;;;;;;;14.70;7.07;;;;;;;2.29;100.00;100960.34;7401192;19;20836;-42
2023/12/14 07:38:54;;;;;;;14.00;5.97;;;;;;;2.22;100.00;100962.28;7375635;19;20419;-42
2023/12/14 07:41:29;;;;;;;15.63;5.70;;;;;;;2.23;100.00;100970.06;7397563;19;20415;-43
2023/12/14 07:43:59;;;;;;;14.13;6.03;;;;;;;2.23;100.00;100984.44;7373593;19;20426;-42
2023/12/14 07:46:32;;;;;;;15.07;6.43;;;;;;;2.29;100.00;100979.81;7398165;19;20482;-44
2023/12/14 07:49:02;;;;;;;13.13;6.10;;;;;;;2.33;100.00;100992.03;7375842;19;21005;-42
2023/12/14 07:51:32;;;;;;;15.63;7.10;;;;;;;2.39;100.00;100978.88;7397320;19;20403;-42
2023/12/14 07:54:03;;;;;;;25.07;8.93;;;;;;;2.36;100.00;100981.22;7373345;19;20447;-41
2023/12/14 07:56:35;;;;;;;15.90;6.10;;;;;;;2.31;100.00;100987.59;7397807;19;20487;-43
2023/12/14 07:59:07;;;;;;;12.83;5.47;;;;;;;2.36;100.00;100991.41;7374722;19;20417;-42
2023/12/14 08:01:37;;;;;;;16.50;7.40;;;;;;;2.42;100.00;100995.28;7397053;19;20411;-42
2023/12/14 08:04:06;;;;;;;9.77;4.97;;;;;;;2.48;100.00;101002.53;7375671;19;20975;-42
2023/12/14 08:06:36;;;;;;;12.10;5.40;;;;;;;2.50;100.00;100997.53;7397674;19;20492;-42
2023/12/14 08:09:06;;;;;;;10.97;5.20;;;;;;;2.41;100.00;101001.16;7373722;19;20435;-42
2023/12/14 08:11:38;;;;;;;11.27;5.63;;;;;;;2.44;100.00;101008.16;7399171;19;20404;-40
2023/12/14 08:14:07;;;;;;;17.27;7.10;;;;;;;2.52;100.00;101012.19;7375553;19;20435;-43
2023/12/14 08:16:37;;;;;;;58.40;19.77;;;;;;;2.56;100.00;101015.84;7397606;19;20768;-42
2023/12/14 08:19:07;;;;;;;10.80;5.63;;;;;;;2.44;100.00;101018.34;7374550;19;20511;-43
2023/12/14 08:21:36;;;;;;;14.97;5.80;;;;;;;2.43;100.00;101022.53;7394237;19;20407;-43
2023/12/14 08:24:07;;;;;;;12.10;5.33;;;;;;;2.45;100.00;101022.66;7374826;19;20427;-44
2023/12/14 08:26:39;;;;;;;11.60;5.00;;;;;;;2.51;100.00;101023.16;7394061;19;20404;-42
2023/12/14 08:29:09;;;;;;;38.87;14.20;;;;;;;2.64;100.00;101031.75;7373452;19;20477;-43
2023/12/14 08:31:38;;;;;;;11.47;5.20;;;;;;;2.67;100.00;101039.66;7395704;19;20407;-42
2023/12/14 08:34:08;;;;;;;12.00;5.30;;;;;;;2.59;100.00;101040.69;7376297;19;21042;-43
2023/12/14 08:36:38;;;;;;;31.67;12.07;;;;;;;2.62;100.00;101046.91;7396978;19;20403;-44
2023/12/14 08:39:08;;;;;;;21.90;8.00;;;;;;;2.58;100.00;101049.09;7376397;19;20518;-44
2023/12/14 08:41:40;;;;;;;32.37;13.23;;;;;;;2.74;100.00;101054.66;7396335;19;20499;-42
2023/12/14 08:44:10;;;;;;;12.53;5.87;;;;;;;2.72;100.00;101061.25;7373996;19;20439;-43
2023/12/14 08:46:44;;;;;;;11.57;6.13;;;;;;;2.66;100.00;101068.47;7396148;19;20812;-44
2023/12/14 08:49:15;;;;;;;11.60;5.60;;;;;;;2.56;100.00;101072.81;7374896;19;20458;-42
2023/12/14 08:51:45;;;;;;;13.00;6.53;;;;;;;2.51;100.00;101081.75;7371447;19;20391;-42
2023/12/14 08:54:15;;;;;;;13.77;5.70;;;;;;;2.47;100.00;101087.38;7395230;19;20491;-43
2023/12/14 08:56:47;;;;;;;11.97;5.50;;;;;;;2.40;100.00;101092.72;7374126;19;20403;-42
2023/12/14 08:59:19;;;;;;;13.53;6.20;;;;;;;2.43;100.00;101093.84;7394569;19;20418;-41
2023/12/14 09:01:48;;;;;;;36.80;12.33;;;;;;;2.62;100.00;101102.09;7373201;19;20442;-41
2023/12/14 09:04:18;;;;;;;13.50;5.37;;;;;;;2.51;100.00;101104.66;7393633;19;20974;-42
2023/12/14 09:06:48;;;;;;;13.47;5.43;;;;;;;2.52;100.00;101106.44;7370243;19;20404;-42
2023/12/14 09:09:18;;;;;;;12.87;5.80;;;;;;;2.54;100.00;101104.03;7390236;19;20414;-41
2023/12/14 09:11:50;;;;;;;12.90;5.90;;;;;;;2.53;100.00;101112.44;7370776;19;20406;-42
2023/12/14 09:14:23;;;;;;;14.70;6.10;;;;;;;2.54;100.00;101107.47;7394021;19;20795;-43
2023/12/14 09:16:53;;;;;;;30.73;10.97;;;;;;;2.56;100.00;101112.66;7373320;19;21062;-42
2023/12/14 09:19:23;;;;;;;13.20;6.53;;;;;;;2.69;100.00;101120.53;7394003;19;20404;-43
2023/12/14 09:21:52;;;;;;;25.00;10.03;;;;;;;2.66;100.00;101132.16;7370153;19;20480;-41
2023/12/14 09:24:22;;;;;;;28.20;10.90;;;;;;;2.62;100.00;101125.03;7393359;19;20427;-43
2023/12/14 09:26:57;;;;;;;9.90;5.60;;;;;;;2.58;100.00;101131.53;7372882;19;20411;-42
2023/12/14 09:29:26;;;;;;;11.03;5.53;;;;;;;2.62;100.00;101145.41;7393763;19;20404;-42
2023/12/14 09:31:56;;;;;;;13.37;5.17;;;;;;;2.65;100.00;101143.09;7372485;19;20410;-42
2023/12/14 09:34:26;;;;;;;15.10;5.57;;;;;;;2.59;100.00;101155.34;7393346;19;20861;-41
2023/12/14 09:36:56;;;;;;;13.00;5.47;;;;;;;2.59;100.00;101155.34;7375381;19;20440;-43
2023/12/14 09:39:27;;;;;;;34.50;12.87;;;;;;;2.56;100.00;101156.88;7394337;19;20410;-42
2023/12/14 09:42:07;;;;;;;8.90;4.87;;;;;;;2.67;100.00;101157.75;7371272;19;20390;-43
2023/12/14 09:44:37;;;;;;;24.63;10.73;;;;;;;2.62;100.00;101168.34;7393799;19;20430;-43
2023/12/14 09:47:07;;;;;;;12.57;4.57;;;;;;;2.61;100.00;101161.47;7372846;19;20808;-44
2023/12/14 09:49:40;;;;;;;11.43;5.53;;;;;;;2.69;100.00;101160.41;7393171;19;20403;-43
2023/12/14 09:52:11;;;;;;;11.00;5.57;;;;;;;2.76;100.00;101165.22;7369927;19;20950;-41
2023/12/14 09:54:40;;;;;;;14.60;6.50;;;;;;;2.70;100.00;101163.09;7393928;19;20873;-44
2023/12/14 09:57:12;;;;;;;34.07;12.17;;;;;;;2.77;100.00;101167.00;7370687;19;20399;-41
2023/12/14 09:59:43;;;;;;;12.70;6.10;;;;;;;2.89;100.00;101168.75;7392839;19;20411;-44
2023/12/14 10:02:13;;;;;;;10.23;4.47;;;;;;;2.89;100.00;101173.84;7370627;19;20379;-45
2023/12/14 10:04:46;;;;;;;11.80;5.50;;;;;;;3.01;100.00;101179.94;7393814;19;20444;-43
2023/12/14 10:07:16;;;;;;;13.47;5.93;;;;;;;2.92;100.00;101184.31;7371609;19;20503;-43
2023/12/14 10:09:46;;;;;;;11.53;5.70;;;;;;;2.90;100.00;101196.03;7391660;19;20498;-43
2023/12/14 10:12:18;;;;;;;10.23;5.57;;;;;;;2.95;100.00;101199.84;7369800;19;20425;-45
2023/12/14 10:14:48;;;;;;;8.50;4.73;;;;;;;3.24;100.00;101209.78;7393725;19;20443;-42
2023/12/14 10:17:21;;;;;;;10.07;4.77;;;;;;;4.05;100.00;101207.38;7370311;19;20407;-43
2023/12/14 10:19:51;;;;;;;10.97;4.57;;;;;;;4.79;100.00;101203.38;7392764;19;20412;-44
2023/12/14 10:22:21;;;;;;;9.37;4.57;;;;;;;4.11;100.00;101210.38;7368380;19;20579;-43
2023/12/14 10:24:50;;;;;;;10.60;4.83;;;;;;;3.53;100.00;101217.94;7392063;19;20522;-41
2023/12/14 10:27:23;;;;;;;9.43;4.60;;;;;;;3.14;100.00;101237.00;7367697;19;20420;-42
2023/12/14 10:29:52;;;;;;;13.20;6.23;;;;;;;3.00;100.00;101241.88;7390372;19;21058;-46
2023/12/14 10:32:22;;;;;;;10.30;5.30;;;;;;;2.94;100.00;101254.16;7369139;19;20394;-41
2023/12/14 10:34:52;;;;;;;8.30;4.27;;;;;;;3.04;100.00;101256.69;7392481;19;20448;-42
2023/12/14 10:37:24;;;;;;;6.73;4.00;;;;;;;2.95;100.00;101261.03;7369504;19;20478;-41
2023/12/14 10:39:55;;;;;;;8.33;4.10;;;;;;;2.88;100.00;101267.31;7393012;19;20407;-41
2023/12/14 10:42:29;;;;;;;8.87;4.30;;;;;;;2.80;100.00;101266.66;7367794;19;20982;-41
2023/12/14 10:44:59;;;;;;;9.93;4.90;;;;;;;2.79;100.00;101275.09;7392558;19;20520;-43
2023/12/14 10:47:47;;;;;;;12.87;5.40;;;;;;;2.76;100.00;101272.28;7369653;19;20483;-44
2023/12/14 10:50:18;;;;;;;9.17;4.43;;;;;;;2.81;100.00;101277.75;7391123;19;20757;-41
2023/12/14 10:52:48;;;;;;;8.93;4.50;;;;;;;2.78;100.00;101277.50;7371341;19;20419;-42
2023/12/14 10:55:30;;;;;;;9.30;4.53;;;;;;;2.88;100.00;101279.13;7392570;19;20448;-44
2023/12/14 10:58:03;;;;;;;9.70;4.90;;;;;;;2.94;100.00;101290.75;7370335;19;20422;-43
2023/12/14 11:00:33;;;;;;;9.97;4.80;;;;;;;2.97;100.00;101295.16;7393440;19;20411;-44
2023/12/14 11:03:03;;;;;;;7.43;4.10;;;;;;;2.83;100.00;101297.50;7369409;19;20418;-40
2023/12/14 11:05:36;;;;;;;9.53;4.07;;;;;;;2.83;100.00;101304.25;7392626;19;20439;-41
2023/12/14 11:08:09;;;;;;;8.07;4.63;;;;;;;2.77;100.00;101301.22;7367340;19;20411;-42
2023/12/14 11:10:41;;;;;;;14.53;5.00;;;;;;;2.83;100.00;101310.22;7383982;19;20895;-42
2023/12/14 11:13:14;;;;;;;11.63;4.53;;;;;;;2.92;100.00;101306.69;7363078;19;20427;-41
2023/12/14 11:15:51;;;;;;;17.70;5.53;;;;;;;2.75;100.00;101311.28;7391420;19;20427;-41
2023/12/14 11:18:25;;;;;;;17.13;7.83;;;;;;;2.72;100.00;101321.19;7368569;19;20853;-40
2023/12/14 11:21:01;;;;;;;14.27;4.67;;;;;;;2.78;100.00;101323.38;7390829;19;20843;-42
2023/12/14 11:23:33;;;;;;;12.63;4.80;;;;;;;2.83;100.00;101328.06;7367331;19;20822;-41
2023/12/14 11:26:05;;;;;;;15.07;6.30;;;;;;;2.94;100.00;101328.06;7391099;19;20996;-43
2023/12/14 11:28:41;;;;;;;10.93;4.20;;;;;;;2.96;100.00;101324.88;7367077;19;20993;-41
2023/12/14 11:31:12;;;;;;;11.03;4.77;;;;;;;2.96;100.00;101329.09;7391470;19;20405;-42